sensor_id;sensor_type;location;lat;lon;timestamp;P1;durP1;ratioP1;P2;durP2;ratioP2
70369;SDS011;57790;51.356;-2.906;2023-04-24T00:00:25;6.13;;;1.90;;
70369;SDS011;57790;51.356;-2.906;2023-04-24T00:03:26;5.17;;;1.53;;
70369;SDS011;57790;51.356;-2.906;2023-04-24T00:06:27;7.80;;;1.80;;
70369;SDS011;57790;51.356;-2.906;2023-04-24T00:09:34;5.95;;;1.70;;
70369;SDS011;57790;51.356;-2.906;2023-04-24T00:12:35;6.30;;;2.00;;
70369;SDS011;57790;51.356;-2.906;2023-04-24T00:15:36;6.65;;;2.00;;
70369;SDS011;57790;51.356;-2.906;2023-04-24T00:18:36;7.83;;;2.30;;
70369;SDS011;57790;51.356;-2.906;2023-04-24T00:21:36;6.80;;;2.00;;
70369;SDS011;57790;51.356;-2.906;2023-04-24T00:24:37;6.28;;;1.60;;
70369;SDS011;57790;51.356;-2.906;2023-04-24T00:27:37;5.90;;;1.60;;
70369;SDS011;57790;51.356;-2.906;2023-04-24T00:30:38;7.53;;;2.00;;
70369;SDS011;57790;51.356;-2.906;2023-04-24T00:33:40;6.23;;;1.83;;
70369;SDS011;57790;51.356;-2.906;2023-04-24T00:36:40;4.85;;;1.55;;
70369;SDS011;57790;51.356;-2.906;2023-04-24T00:39:41;5.13;;;1.53;;
70369;SDS011;57790;51.356;-2.906;2023-04-24T00:42:41;6.00;;;1.73;;
70369;SDS011;57790;51.356;-2.906;2023-04-24T00:45:43;5.47;;;1.60;;
70369;SDS011;57790;51.356;-2.906;2023-04-24T00:48:43;6.30;;;1.60;;
70369;SDS011;57790;51.356;-2.906;2023-04-24T00:51:44;6.07;;;1.63;;
70369;SDS011;57790;51.356;-2.906;2023-04-24T00:54:45;4.90;;;1.50;;
70369;SDS011;57790;51.356;-2.906;2023-04-24T00:57:46;5.15;;;1.48;;
70369;SDS011;57790;51.356;-2.906;2023-04-24T01:00:48;5.53;;;1.50;;
70369;SDS011;57790;51.356;-2.906;2023-04-24T01:03:50;6.90;;;1.80;;
70369;SDS011;57790;51.356;-2.906;2023-04-24T01:06:52;6.00;;;1.83;;
70369;SDS011;57790;51.356;-2.906;2023-04-24T01:09:54;6.85;;;2.20;;
70369;SDS011;57790;51.356;-2.906;2023-04-24T01:12:55;7.00;;;2.00;;
70369;SDS011;57790;51.356;-2.906;2023-04-24T01:15:55;6.88;;;2.20;;
70369;SDS011;57790;51.356;-2.906;2023-04-24T01:18:56;7.07;;;1.90;;
70369;SDS011;57790;51.356;-2.906;2023-04-24T01:21:58;8.07;;;2.40;;
70369;SDS011;57790;51.356;-2.906;2023-04-24T01:25:02;7.37;;;2.20;;
70369;SDS011;57790;51.356;-2.906;2023-04-24T01:28:03;6.78;;;2.30;;
70369;SDS011;57790;51.356;-2.906;2023-04-24T01:31:04;7.80;;;2.30;;
70369;SDS011;57790;51.356;-2.906;2023-04-24T01:34:04;7.40;;;2.60;;
70369;SDS011;57790;51.356;-2.906;2023-04-24T01:46:06;7.80;;;2.63;;
70369;SDS011;57790;51.356;-2.906;2023-04-24T01:49:06;8.25;;;2.72;;
70369;SDS011;57790;51.356;-2.906;2023-04-24T01:52:07;8.17;;;2.60;;
70369;SDS011;57790;51.356;-2.906;2023-04-24T01:55:08;8.40;;;2.60;;
70369;SDS011;57790;51.356;-2.906;2023-04-24T01:58:09;7.72;;;2.58;;
70369;SDS011;57790;51.356;-2.906;2023-04-24T02:01:10;6.80;;;2.50;;
70369;SDS011;57790;51.356;-2.906;2023-04-24T02:04:17;7.90;;;2.50;;
70369;SDS011;57790;51.356;-2.906;2023-04-24T02:07:18;7.45;;;2.55;;
70369;SDS011;57790;51.356;-2.906;2023-04-24T02:10:18;8.00;;;2.80;;
70369;SDS011;57790;51.356;-2.906;2023-04-24T02:13:18;8.73;;;2.93;;
70369;SDS011;57790;51.356;-2.906;2023-04-24T02:16:19;6.70;;;2.10;;
70369;SDS011;57790;51.356;-2.906;2023-04-24T02:19:19;6.27;;;1.97;;
70369;SDS011;57790;51.356;-2.906;2023-04-24T02:22:20;7.32;;;2.05;;
70369;SDS011;57790;51.356;-2.906;2023-04-24T02:25:20;7.83;;;2.23;;
70369;SDS011;57790;51.356;-2.906;2023-04-24T02:28:21;7.43;;;2.00;;
70369;SDS011;57790;51.356;-2.906;2023-04-24T02:31:21;7.13;;;2.22;;
70369;SDS011;57790;51.356;-2.906;2023-04-24T02:34:22;6.47;;;1.80;;
70369;SDS011;57790;51.356;-2.906;2023-04-24T02:37:23;5.63;;;1.70;;
70369;SDS011;57790;51.356;-2.906;2023-04-24T02:40:23;6.85;;;1.80;;
70369;SDS011;57790;51.356;-2.906;2023-04-24T02:43:24;6.57;;;1.60;;
70369;SDS011;57790;51.356;-2.906;2023-04-24T02:46:25;7.07;;;1.90;;
70369;SDS011;57790;51.356;-2.906;2023-04-24T02:49:25;5.85;;;1.85;;
70369;SDS011;57790;51.356;-2.906;2023-04-24T02:52:26;5.65;;;1.65;;
70369;SDS011;57790;51.356;-2.906;2023-04-24T02:55:27;6.20;;;1.70;;
70369;SDS011;57790;51.356;-2.906;2023-04-24T02:58:28;6.03;;;1.73;;
70369;SDS011;57790;51.356;-2.906;2023-04-24T03:01:28;6.57;;;1.83;;
70369;SDS011;57790;51.356;-2.906;2023-04-24T03:04:29;5.20;;;1.60;;
70369;SDS011;57790;51.356;-2.906;2023-04-24T03:07:29;5.00;;;1.50;;
70369;SDS011;57790;51.356;-2.906;2023-04-24T03:10:31;5.85;;;1.80;;
70369;SDS011;57790;51.356;-2.906;2023-04-24T03:13:32;6.20;;;1.73;;
70369;SDS011;57790;51.356;-2.906;2023-04-24T03:16:32;6.20;;;1.80;;
70369;SDS011;57790;51.356;-2.906;2023-04-24T03:19:32;6.47;;;2.00;;
70369;SDS011;57790;51.356;-2.906;2023-04-24T03:22:33;5.30;;;1.70;;
70369;SDS011;57790;51.356;-2.906;2023-04-24T03:25:34;5.33;;;1.50;;
70369;SDS011;57790;51.356;-2.906;2023-04-24T03:28:34;7.13;;;1.70;;
70369;SDS011;57790;51.356;-2.906;2023-04-24T03:31:34;6.18;;;1.73;;
70369;SDS011;57790;51.356;-2.906;2023-04-24T03:34:35;5.77;;;1.80;;
70369;SDS011;57790;51.356;-2.906;2023-04-24T03:37:35;5.40;;;1.67;;
70369;SDS011;57790;51.356;-2.906;2023-04-24T03:40:36;5.13;;;1.60;;
70369;SDS011;57790;51.356;-2.906;2023-04-24T03:43:36;6.73;;;1.83;;
70369;SDS011;57790;51.356;-2.906;2023-04-24T03:46:37;6.65;;;1.83;;
70369;SDS011;57790;51.356;-2.906;2023-04-24T03:49:37;5.77;;;1.77;;
70369;SDS011;57790;51.356;-2.906;2023-04-24T03:52:38;6.77;;;2.10;;
70369;SDS011;57790;51.356;-2.906;2023-04-24T03:55:38;6.37;;;2.10;;
70369;SDS011;57790;51.356;-2.906;2023-04-24T03:58:39;6.80;;;1.87;;
70369;SDS011;57790;51.356;-2.906;2023-04-24T04:01:39;5.47;;;1.77;;
70369;SDS011;57790;51.356;-2.906;2023-04-24T04:04:39;7.00;;;2.07;;
70369;SDS011;57790;51.356;-2.906;2023-04-24T04:07:40;6.07;;;1.87;;
70369;SDS011;57790;51.356;-2.906;2023-04-24T04:10:40;7.30;;;2.27;;
70369;SDS011;57790;51.356;-2.906;2023-04-24T04:13:41;6.10;;;1.80;;
70369;SDS011;57790;51.356;-2.906;2023-04-24T04:16:41;6.05;;;1.83;;
70369;SDS011;57790;51.356;-2.906;2023-04-24T04:19:42;6.13;;;2.00;;
70369;SDS011;57790;51.356;-2.906;2023-04-24T04:22:42;6.80;;;1.93;;
70369;SDS011;57790;51.356;-2.906;2023-04-24T04:25:42;5.67;;;1.60;;
70369;SDS011;57790;51.356;-2.906;2023-04-24T04:28:43;5.70;;;1.80;;
70369;SDS011;57790;51.356;-2.906;2023-04-24T04:31:44;6.20;;;2.05;;
70369;SDS011;57790;51.356;-2.906;2023-04-24T04:34:45;6.43;;;1.92;;
70369;SDS011;57790;51.356;-2.906;2023-04-24T04:37:45;5.73;;;1.80;;
70369;SDS011;57790;51.356;-2.906;2023-04-24T04:40:46;7.03;;;2.17;;
70369;SDS011;57790;51.356;-2.906;2023-04-24T04:43:46;6.43;;;2.00;;
70369;SDS011;57790;51.356;-2.906;2023-04-24T04:46:47;6.10;;;1.83;;
70369;SDS011;57790;51.356;-2.906;2023-04-24T04:49:48;6.30;;;2.07;;
70369;SDS011;57790;51.356;-2.906;2023-04-24T04:52:48;6.63;;;2.20;;
70369;SDS011;57790;51.356;-2.906;2023-04-24T04:55:48;7.47;;;2.27;;
70369;SDS011;57790;51.356;-2.906;2023-04-24T04:58:49;6.90;;;2.23;;
70369;SDS011;57790;51.356;-2.906;2023-04-24T05:01:49;6.77;;;2.00;;
70369;SDS011;57790;51.356;-2.906;2023-04-24T05:04:50;6.23;;;2.10;;
70369;SDS011;57790;51.356;-2.906;2023-04-24T05:07:50;6.97;;;2.20;;
70369;SDS011;57790;51.356;-2.906;2023-04-24T05:10:50;7.43;;;2.30;;
70369;SDS011;57790;51.356;-2.906;2023-04-24T05:13:51;6.23;;;2.03;;
70369;SDS011;57790;51.356;-2.906;2023-04-24T05:16:52;8.70;;;2.47;;
70369;SDS011;57790;51.356;-2.906;2023-04-24T05:19:52;6.80;;;2.17;;
70369;SDS011;57790;51.356;-2.906;2023-04-24T05:22:53;7.37;;;2.30;;
70369;SDS011;57790;51.356;-2.906;2023-04-24T05:25:53;6.57;;;2.10;;
70369;SDS011;57790;51.356;-2.906;2023-04-24T05:28:53;6.60;;;2.30;;
70369;SDS011;57790;51.356;-2.906;2023-04-24T05:31:54;6.20;;;1.90;;
70369;SDS011;57790;51.356;-2.906;2023-04-24T05:34:54;7.72;;;1.92;;
70369;SDS011;57790;51.356;-2.906;2023-04-24T05:37:55;7.00;;;2.20;;
70369;SDS011;57790;51.356;-2.906;2023-04-24T05:40:55;6.43;;;2.10;;
70369;SDS011;57790;51.356;-2.906;2023-04-24T05:43:56;6.47;;;2.30;;
70369;SDS011;57790;51.356;-2.906;2023-04-24T05:46:56;7.60;;;2.70;;
70369;SDS011;57790;51.356;-2.906;2023-04-24T05:49:56;6.80;;;2.47;;
70369;SDS011;57790;51.356;-2.906;2023-04-24T05:52:57;7.63;;;2.60;;
70369;SDS011;57790;51.356;-2.906;2023-04-24T05:56:02;8.35;;;2.92;;
70369;SDS011;57790;51.356;-2.906;2023-04-24T05:59:02;8.60;;;3.43;;
70369;SDS011;57790;51.356;-2.906;2023-04-24T06:02:03;7.78;;;2.90;;
70369;SDS011;57790;51.356;-2.906;2023-04-24T06:05:04;7.70;;;3.00;;
70369;SDS011;57790;51.356;-2.906;2023-04-24T06:08:04;7.60;;;2.90;;
70369;SDS011;57790;51.356;-2.906;2023-04-24T06:11:05;8.63;;;3.00;;
70369;SDS011;57790;51.356;-2.906;2023-04-24T06:14:05;9.10;;;2.70;;
70369;SDS011;57790;51.356;-2.906;2023-04-24T06:17:06;8.67;;;2.57;;
70369;SDS011;57790;51.356;-2.906;2023-04-24T06:20:06;7.23;;;2.67;;
70369;SDS011;57790;51.356;-2.906;2023-04-24T06:23:08;8.60;;;2.67;;
70369;SDS011;57790;51.356;-2.906;2023-04-24T06:26:08;9.13;;;3.30;;
70369;SDS011;57790;51.356;-2.906;2023-04-24T06:29:09;7.97;;;2.70;;
70369;SDS011;57790;51.356;-2.906;2023-04-24T06:32:09;8.25;;;2.90;;
70369;SDS011;57790;51.356;-2.906;2023-04-24T06:35:09;8.40;;;3.03;;
70369;SDS011;57790;51.356;-2.906;2023-04-24T06:38:11;9.88;;;3.30;;
70369;SDS011;57790;51.356;-2.906;2023-04-24T06:41:11;8.97;;;2.83;;
70369;SDS011;57790;51.356;-2.906;2023-04-24T06:44:12;9.43;;;3.25;;
70369;SDS011;57790;51.356;-2.906;2023-04-24T06:47:14;10.13;;;3.10;;
70369;SDS011;57790;51.356;-2.906;2023-04-24T06:50:15;9.38;;;3.33;;
70369;SDS011;57790;51.356;-2.906;2023-04-24T06:53:15;8.20;;;2.83;;
70369;SDS011;57790;51.356;-2.906;2023-04-24T06:56:16;7.43;;;2.77;;
70369;SDS011;57790;51.356;-2.906;2023-04-24T06:59:16;9.00;;;2.80;;
70369;SDS011;57790;51.356;-2.906;2023-04-24T07:02:17;8.87;;;2.90;;
70369;SDS011;57790;51.356;-2.906;2023-04-24T07:05:17;10.60;;;3.20;;
70369;SDS011;57790;51.356;-2.906;2023-04-24T07:08:19;9.02;;;2.95;;
70369;SDS011;57790;51.356;-2.906;2023-04-24T07:11:21;8.23;;;3.10;;
70369;SDS011;57790;51.356;-2.906;2023-04-24T07:14:22;9.60;;;3.55;;
70369;SDS011;57790;51.356;-2.906;2023-04-24T07:17:22;8.47;;;3.30;;
70369;SDS011;57790;51.356;-2.906;2023-04-24T07:20:23;9.80;;;3.70;;
70369;SDS011;57790;51.356;-2.906;2023-04-24T07:23:23;9.27;;;3.43;;
70369;SDS011;57790;51.356;-2.906;2023-04-24T07:26:25;11.43;;;3.50;;
70369;SDS011;57790;51.356;-2.906;2023-04-24T07:29:26;9.65;;;3.15;;
70369;SDS011;57790;51.356;-2.906;2023-04-24T07:32:27;9.50;;;3.40;;
70369;SDS011;57790;51.356;-2.906;2023-04-24T07:35:27;11.17;;;3.60;;
70369;SDS011;57790;51.356;-2.906;2023-04-24T07:38:29;9.27;;;3.40;;
70369;SDS011;57790;51.356;-2.906;2023-04-24T07:41:29;9.88;;;3.65;;
70369;SDS011;57790;51.356;-2.906;2023-04-24T07:44:30;9.50;;;4.00;;
70369;SDS011;57790;51.356;-2.906;2023-04-24T07:47:32;10.32;;;3.70;;
70369;SDS011;57790;51.356;-2.906;2023-04-24T07:50:33;12.25;;;4.05;;
70369;SDS011;57790;51.356;-2.906;2023-04-24T07:53:34;10.82;;;3.75;;
70369;SDS011;57790;51.356;-2.906;2023-04-24T07:56:35;8.80;;;3.77;;
70369;SDS011;57790;51.356;-2.906;2023-04-24T07:59:38;9.73;;;3.45;;
70369;SDS011;57790;51.356;-2.906;2023-04-24T08:02:39;9.37;;;3.63;;
70369;SDS011;57790;51.356;-2.906;2023-04-24T08:05:39;11.07;;;3.57;;
70369;SDS011;57790;51.356;-2.906;2023-04-24T08:08:41;9.45;;;3.38;;
70369;SDS011;57790;51.356;-2.906;2023-04-24T08:11:43;10.47;;;3.67;;
70369;SDS011;57790;51.356;-2.906;2023-04-24T08:14:43;10.50;;;4.00;;
70369;SDS011;57790;51.356;-2.906;2023-04-24T08:17:44;9.33;;;3.43;;
70369;SDS011;57790;51.356;-2.906;2023-04-24T08:20:44;9.73;;;3.75;;
70369;SDS011;57790;51.356;-2.906;2023-04-24T08:23:45;9.53;;;3.70;;
70369;SDS011;57790;51.356;-2.906;2023-04-24T08:26:45;10.53;;;3.73;;
70369;SDS011;57790;51.356;-2.906;2023-04-24T08:29:46;9.33;;;3.83;;
70369;SDS011;57790;51.356;-2.906;2023-04-24T08:32:47;10.23;;;3.97;;
70369;SDS011;57790;51.356;-2.906;2023-04-24T08:35:47;10.40;;;4.10;;
70369;SDS011;57790;51.356;-2.906;2023-04-24T08:38:48;8.80;;;3.60;;
70369;SDS011;57790;51.356;-2.906;2023-04-24T08:41:48;9.30;;;3.80;;
70369;SDS011;57790;51.356;-2.906;2023-04-24T08:44:50;8.73;;;3.30;;
70369;SDS011;57790;51.356;-2.906;2023-04-24T08:47:51;10.47;;;3.30;;
70369;SDS011;57790;51.356;-2.906;2023-04-24T08:50:53;9.50;;;3.60;;
70369;SDS011;57790;51.356;-2.906;2023-04-24T08:53:54;8.87;;;3.67;;
70369;SDS011;57790;51.356;-2.906;2023-04-24T08:56:57;9.15;;;3.17;;
70369;SDS011;57790;51.356;-2.906;2023-04-24T09:00:03;9.20;;;3.55;;
70369;SDS011;57790;51.356;-2.906;2023-04-24T09:03:05;10.20;;;3.50;;
70369;SDS011;57790;51.356;-2.906;2023-04-24T09:06:06;10.65;;;3.75;;
70369;SDS011;57790;51.356;-2.906;2023-04-24T09:09:09;8.75;;;3.30;;
70369;SDS011;57790;51.356;-2.906;2023-04-24T09:12:11;9.77;;;3.05;;
70369;SDS011;57790;51.356;-2.906;2023-04-24T09:15:12;8.43;;;2.83;;
70369;SDS011;57790;51.356;-2.906;2023-04-24T09:18:13;8.25;;;3.28;;
70369;SDS011;57790;51.356;-2.906;2023-04-24T09:21:13;7.53;;;2.77;;
70369;SDS011;57790;51.356;-2.906;2023-04-24T09:24:16;9.35;;;3.10;;
70369;SDS011;57790;51.356;-2.906;2023-04-24T09:27:22;7.25;;;2.60;;
70369;SDS011;57790;51.356;-2.906;2023-04-24T09:30:23;7.73;;;2.50;;
70369;SDS011;57790;51.356;-2.906;2023-04-24T09:33:24;8.37;;;3.10;;
70369;SDS011;57790;51.356;-2.906;2023-04-24T09:36:31;9.47;;;3.07;;
70369;SDS011;57790;51.356;-2.906;2023-04-24T09:39:39;8.98;;;2.83;;
70369;SDS011;57790;51.356;-2.906;2023-04-24T09:42:42;12.83;;;3.30;;
70369;SDS011;57790;51.356;-2.906;2023-04-24T09:45:45;9.68;;;3.42;;
70369;SDS011;57790;51.356;-2.906;2023-04-24T09:48:45;11.03;;;4.63;;
70369;SDS011;57790;51.356;-2.906;2023-04-24T09:51:45;12.50;;;4.37;;
70369;SDS011;57790;51.356;-2.906;2023-04-24T09:54:51;10.07;;;3.40;;
70369;SDS011;57790;51.356;-2.906;2023-04-24T09:57:57;10.00;;;3.47;;
70369;SDS011;57790;51.356;-2.906;2023-04-24T10:01:00;10.40;;;3.55;;
70369;SDS011;57790;51.356;-2.906;2023-04-24T10:04:00;7.40;;;2.40;;
70369;SDS011;57790;51.356;-2.906;2023-04-24T10:07:01;7.90;;;2.40;;
70369;SDS011;57790;51.356;-2.906;2023-04-24T10:10:06;8.05;;;2.78;;
70369;SDS011;57790;51.356;-2.906;2023-04-24T10:13:07;10.47;;;3.20;;
70369;SDS011;57790;51.356;-2.906;2023-04-24T10:16:10;9.10;;;2.67;;
70369;SDS011;57790;51.356;-2.906;2023-04-24T10:19:10;8.37;;;2.97;;
70369;SDS011;57790;51.356;-2.906;2023-04-24T10:22:13;7.93;;;2.78;;
70369;SDS011;57790;51.356;-2.906;2023-04-24T10:25:17;8.00;;;2.90;;
70369;SDS011;57790;51.356;-2.906;2023-04-24T10:28:20;9.35;;;2.65;;
70369;SDS011;57790;51.356;-2.906;2023-04-24T10:31:20;7.13;;;1.90;;
70369;SDS011;57790;51.356;-2.906;2023-04-24T10:34:21;6.97;;;1.80;;
70369;SDS011;57790;51.356;-2.906;2023-04-24T10:37:24;6.10;;;1.70;;
70369;SDS011;57790;51.356;-2.906;2023-04-24T10:40:27;4.97;;;1.30;;
70369;SDS011;57790;51.356;-2.906;2023-04-24T10:43:30;6.23;;;1.50;;
70369;SDS011;57790;51.356;-2.906;2023-04-24T10:46:33;4.70;;;1.30;;
70369;SDS011;57790;51.356;-2.906;2023-04-24T10:49:34;5.30;;;1.17;;
70369;SDS011;57790;51.356;-2.906;2023-04-24T10:52:47;6.30;;;1.60;;
70369;SDS011;57790;51.356;-2.906;2023-04-24T10:55:51;3.80;;;1.10;;
70369;SDS011;57790;51.356;-2.906;2023-04-24T10:58:58;3.40;;;0.80;;
70369;SDS011;57790;51.356;-2.906;2023-04-24T11:01:58;3.67;;;0.80;;
70369;SDS011;57790;51.356;-2.906;2023-04-24T11:04:58;3.37;;;0.93;;
70369;SDS011;57790;51.356;-2.906;2023-04-24T11:08:13;4.70;;;1.25;;
70369;SDS011;57790;51.356;-2.906;2023-04-24T11:11:16;3.58;;;1.00;;
70369;SDS011;57790;51.356;-2.906;2023-04-24T11:14:18;3.15;;;0.90;;
70369;SDS011;57790;51.356;-2.906;2023-04-24T11:20:38;3.63;;;1.00;;
70369;SDS011;57790;51.356;-2.906;2023-04-24T11:23:42;2.85;;;0.90;;
70369;SDS011;57790;51.356;-2.906;2023-04-24T11:26:42;2.63;;;0.80;;
70369;SDS011;57790;51.356;-2.906;2023-04-24T11:29:46;4.15;;;1.00;;
70369;SDS011;57790;51.356;-2.906;2023-04-24T11:33:04;3.28;;;1.00;;
70369;SDS011;57790;51.356;-2.906;2023-04-24T11:36:05;3.30;;;0.90;;
70369;SDS011;57790;51.356;-2.906;2023-04-24T11:39:05;3.85;;;0.70;;
70369;SDS011;57790;51.356;-2.906;2023-04-24T11:42:06;2.53;;;0.73;;
70369;SDS011;57790;51.356;-2.906;2023-04-24T11:45:08;2.83;;;0.88;;
70369;SDS011;57790;51.356;-2.906;2023-04-24T11:48:10;3.53;;;0.70;;
70369;SDS011;57790;51.356;-2.906;2023-04-24T11:51:11;2.90;;;0.80;;
70369;SDS011;57790;51.356;-2.906;2023-04-24T11:54:12;3.77;;;0.90;;
70369;SDS011;57790;51.356;-2.906;2023-04-24T11:57:13;2.78;;;0.80;;
70369;SDS011;57790;51.356;-2.906;2023-04-24T12:00:17;3.40;;;0.87;;
70369;SDS011;57790;51.356;-2.906;2023-04-24T12:03:20;3.15;;;0.90;;
70369;SDS011;57790;51.356;-2.906;2023-04-24T12:06:20;3.20;;;0.70;;
70369;SDS011;57790;51.356;-2.906;2023-04-24T12:09:21;2.57;;;0.60;;
70369;SDS011;57790;51.356;-2.906;2023-04-24T12:12:23;2.97;;;0.80;;
70369;SDS011;57790;51.356;-2.906;2023-04-24T12:15:26;3.65;;;0.68;;
70369;SDS011;57790;51.356;-2.906;2023-04-24T12:18:26;3.47;;;0.90;;
70369;SDS011;57790;51.356;-2.906;2023-04-24T12:21:27;4.70;;;1.00;;
70369;SDS011;57790;51.356;-2.906;2023-04-24T12:24:30;2.95;;;0.75;;
70369;SDS011;57790;51.356;-2.906;2023-04-24T12:27:31;3.38;;;0.80;;
70369;SDS011;57790;51.356;-2.906;2023-04-24T12:30:34;2.75;;;0.70;;
70369;SDS011;57790;51.356;-2.906;2023-04-24T12:33:36;4.27;;;0.90;;
70369;SDS011;57790;51.356;-2.906;2023-04-24T12:36:36;4.90;;;1.00;;
70369;SDS011;57790;51.356;-2.906;2023-04-24T12:39:36;3.43;;;0.90;;
70369;SDS011;57790;51.356;-2.906;2023-04-24T12:42:44;3.93;;;1.00;;
70369;SDS011;57790;51.356;-2.906;2023-04-24T12:45:49;3.53;;;1.00;;
70369;SDS011;57790;51.356;-2.906;2023-04-24T12:48:49;4.47;;;1.17;;
70369;SDS011;57790;51.356;-2.906;2023-04-24T12:51:50;5.73;;;1.40;;
70369;SDS011;57790;51.356;-2.906;2023-04-24T12:54:50;4.80;;;1.30;;
70369;SDS011;57790;51.356;-2.906;2023-04-24T12:57:53;4.97;;;1.30;;
70369;SDS011;57790;51.356;-2.906;2023-04-24T13:00:55;4.60;;;1.50;;
70369;SDS011;57790;51.356;-2.906;2023-04-24T13:03:55;5.57;;;1.40;;
70369;SDS011;57790;51.356;-2.906;2023-04-24T13:06:56;4.50;;;1.40;;
70369;SDS011;57790;51.356;-2.906;2023-04-24T13:09:56;4.33;;;1.37;;
70369;SDS011;57790;51.356;-2.906;2023-04-24T13:12:59;4.53;;;1.50;;
70369;SDS011;57790;51.356;-2.906;2023-04-24T13:16:00;5.00;;;1.60;;
70369;SDS011;57790;51.356;-2.906;2023-04-24T13:19:00;5.77;;;1.57;;
70369;SDS011;57790;51.356;-2.906;2023-04-24T13:22:00;4.70;;;1.50;;
70369;SDS011;57790;51.356;-2.906;2023-04-24T13:25:01;5.97;;;1.60;;
70369;SDS011;57790;51.356;-2.906;2023-04-24T13:28:02;5.03;;;1.70;;
70369;SDS011;57790;51.356;-2.906;2023-04-24T13:31:02;5.10;;;1.57;;
70369;SDS011;57790;51.356;-2.906;2023-04-24T13:34:03;5.27;;;1.67;;
70369;SDS011;57790;51.356;-2.906;2023-04-24T13:37:03;5.40;;;1.40;;
70369;SDS011;57790;51.356;-2.906;2023-04-24T13:40:04;5.67;;;1.63;;
70369;SDS011;57790;51.356;-2.906;2023-04-24T13:43:06;5.78;;;1.90;;
70369;SDS011;57790;51.356;-2.906;2023-04-24T13:46:06;6.30;;;2.00;;
70369;SDS011;57790;51.356;-2.906;2023-04-24T13:49:06;5.60;;;1.80;;
70369;SDS011;57790;51.356;-2.906;2023-04-24T13:52:08;7.43;;;2.10;;
70369;SDS011;57790;51.356;-2.906;2023-04-24T13:55:10;6.75;;;2.30;;
70369;SDS011;57790;51.356;-2.906;2023-04-24T13:58:10;7.63;;;2.35;;
70369;SDS011;57790;51.356;-2.906;2023-04-24T14:01:11;8.27;;;1.80;;
70369;SDS011;57790;51.356;-2.906;2023-04-24T14:04:12;6.03;;;1.90;;
70369;SDS011;57790;51.356;-2.906;2023-04-24T14:07:12;6.43;;;1.73;;
70369;SDS011;57790;51.356;-2.906;2023-04-24T14:10:13;5.87;;;1.77;;
70369;SDS011;57790;51.356;-2.906;2023-04-24T14:13:13;7.13;;;1.93;;
70369;SDS011;57790;51.356;-2.906;2023-04-24T14:16:14;6.28;;;1.90;;
70369;SDS011;57790;51.356;-2.906;2023-04-24T14:19:14;6.00;;;1.90;;
70369;SDS011;57790;51.356;-2.906;2023-04-24T14:22:15;7.57;;;2.00;;
70369;SDS011;57790;51.356;-2.906;2023-04-24T14:25:16;7.05;;;1.95;;
70369;SDS011;57790;51.356;-2.906;2023-04-24T14:28:17;6.37;;;2.00;;
70369;SDS011;57790;51.356;-2.906;2023-04-24T14:31:18;5.47;;;1.70;;
70369;SDS011;57790;51.356;-2.906;2023-04-24T14:34:18;6.07;;;1.80;;
70369;SDS011;57790;51.356;-2.906;2023-04-24T14:37:19;6.05;;;1.55;;
70369;SDS011;57790;51.356;-2.906;2023-04-24T14:40:20;5.67;;;1.50;;
70369;SDS011;57790;51.356;-2.906;2023-04-24T14:43:21;5.05;;;1.42;;
70369;SDS011;57790;51.356;-2.906;2023-04-24T14:46:21;5.30;;;1.50;;
70369;SDS011;57790;51.356;-2.906;2023-04-24T14:49:22;4.43;;;1.27;;
70369;SDS011;57790;51.356;-2.906;2023-04-24T14:52:23;4.05;;;1.23;;
70369;SDS011;57790;51.356;-2.906;2023-04-24T14:55:24;3.60;;;1.03;;
70369;SDS011;57790;51.356;-2.906;2023-04-24T14:58:25;5.35;;;1.02;;
70369;SDS011;57790;51.356;-2.906;2023-04-24T15:01:26;4.57;;;1.40;;
70369;SDS011;57790;51.356;-2.906;2023-04-24T15:04:27;5.63;;;1.30;;
70369;SDS011;57790;51.356;-2.906;2023-04-24T15:07:28;3.97;;;0.90;;
70369;SDS011;57790;51.356;-2.906;2023-04-24T15:10:29;3.97;;;1.10;;
70369;SDS011;57790;51.356;-2.906;2023-04-24T15:13:29;4.67;;;1.17;;
70369;SDS011;57790;51.356;-2.906;2023-04-24T15:16:30;4.30;;;1.23;;
70369;SDS011;57790;51.356;-2.906;2023-04-24T15:19:32;5.73;;;1.60;;
70369;SDS011;57790;51.356;-2.906;2023-04-24T15:22:32;5.23;;;1.60;;
70369;SDS011;57790;51.356;-2.906;2023-04-24T15:25:32;5.10;;;1.40;;
70369;SDS011;57790;51.356;-2.906;2023-04-24T15:28:33;3.87;;;1.10;;
70369;SDS011;57790;51.356;-2.906;2023-04-24T15:31:33;5.57;;;1.50;;
70369;SDS011;57790;51.356;-2.906;2023-04-24T15:34:34;4.27;;;1.30;;
70369;SDS011;57790;51.356;-2.906;2023-04-24T15:37:34;5.93;;;1.20;;
70369;SDS011;57790;51.356;-2.906;2023-04-24T15:40:35;4.13;;;1.13;;
70369;SDS011;57790;51.356;-2.906;2023-04-24T15:43:35;3.87;;;1.23;;
70369;SDS011;57790;51.356;-2.906;2023-04-24T15:46:36;5.03;;;1.40;;
70369;SDS011;57790;51.356;-2.906;2023-04-24T15:49:36;4.60;;;1.30;;
70369;SDS011;57790;51.356;-2.906;2023-04-24T15:52:36;5.10;;;1.37;;
70369;SDS011;57790;51.356;-2.906;2023-04-24T15:55:37;5.80;;;1.37;;
70369;SDS011;57790;51.356;-2.906;2023-04-24T15:58:37;4.30;;;1.50;;
70369;SDS011;57790;51.356;-2.906;2023-04-24T16:01:38;4.87;;;1.00;;
70369;SDS011;57790;51.356;-2.906;2023-04-24T16:04:39;4.40;;;0.98;;
70369;SDS011;57790;51.356;-2.906;2023-04-24T16:07:39;3.73;;;0.93;;
70369;SDS011;57790;51.356;-2.906;2023-04-24T16:10:40;2.60;;;0.80;;
70369;SDS011;57790;51.356;-2.906;2023-04-24T16:13:40;3.93;;;0.90;;
70369;SDS011;57790;51.356;-2.906;2023-04-24T16:16:41;4.90;;;0.70;;
70369;SDS011;57790;51.356;-2.906;2023-04-24T16:19:41;3.03;;;0.80;;
70369;SDS011;57790;51.356;-2.906;2023-04-24T16:22:42;3.33;;;0.75;;
70369;SDS011;57790;51.356;-2.906;2023-04-24T16:25:42;5.00;;;0.87;;
70369;SDS011;57790;51.356;-2.906;2023-04-24T16:28:42;2.73;;;0.80;;
70369;SDS011;57790;51.356;-2.906;2023-04-24T16:31:43;2.87;;;0.70;;
70369;SDS011;57790;51.356;-2.906;2023-04-24T16:34:43;2.77;;;0.70;;
70369;SDS011;57790;51.356;-2.906;2023-04-24T16:37:44;4.20;;;1.00;;
70369;SDS011;57790;51.356;-2.906;2023-04-24T16:40:44;2.83;;;0.70;;
70369;SDS011;57790;51.356;-2.906;2023-04-24T16:43:44;1.90;;;0.60;;
70369;SDS011;57790;51.356;-2.906;2023-04-24T16:46:45;3.33;;;0.90;;
70369;SDS011;57790;51.356;-2.906;2023-04-24T16:49:45;3.97;;;0.80;;
70369;SDS011;57790;51.356;-2.906;2023-04-24T16:52:47;2.58;;;0.70;;
70369;SDS011;57790;51.356;-2.906;2023-04-24T16:55:48;3.57;;;0.70;;
70369;SDS011;57790;51.356;-2.906;2023-04-24T16:58:48;2.87;;;0.80;;
70369;SDS011;57790;51.356;-2.906;2023-04-24T17:01:49;3.77;;;0.70;;
70369;SDS011;57790;51.356;-2.906;2023-04-24T17:04:49;3.00;;;0.80;;
70369;SDS011;57790;51.356;-2.906;2023-04-24T17:07:49;3.20;;;0.80;;
70369;SDS011;57790;51.356;-2.906;2023-04-24T17:10:50;3.40;;;1.00;;
70369;SDS011;57790;51.356;-2.906;2023-04-24T17:13:50;3.57;;;0.83;;
70369;SDS011;57790;51.356;-2.906;2023-04-24T17:16:51;4.63;;;1.07;;
70369;SDS011;57790;51.356;-2.906;2023-04-24T17:19:52;6.07;;;1.15;;
70369;SDS011;57790;51.356;-2.906;2023-04-24T17:22:52;3.87;;;0.80;;
70369;SDS011;57790;51.356;-2.906;2023-04-24T17:25:53;5.10;;;1.20;;
70369;SDS011;57790;51.356;-2.906;2023-04-24T17:28:53;4.35;;;0.90;;
70369;SDS011;57790;51.356;-2.906;2023-04-24T17:31:54;4.13;;;0.97;;
70369;SDS011;57790;51.356;-2.906;2023-04-24T17:34:54;4.67;;;1.00;;
70369;SDS011;57790;51.356;-2.906;2023-04-24T17:37:54;4.90;;;1.07;;
70369;SDS011;57790;51.356;-2.906;2023-04-24T17:40:55;4.63;;;0.93;;
70369;SDS011;57790;51.356;-2.906;2023-04-24T17:43:57;3.78;;;0.95;;
70369;SDS011;57790;51.356;-2.906;2023-04-24T17:46:57;4.40;;;1.00;;
70369;SDS011;57790;51.356;-2.906;2023-04-24T17:49:58;3.53;;;1.00;;
70369;SDS011;57790;51.356;-2.906;2023-04-24T17:52:58;4.47;;;1.10;;
70369;SDS011;57790;51.356;-2.906;2023-04-24T17:55:59;4.87;;;1.03;;
70369;SDS011;57790;51.356;-2.906;2023-04-24T17:59:02;4.03;;;0.80;;
70369;SDS011;57790;51.356;-2.906;2023-04-24T18:02:02;4.30;;;1.20;;
70369;SDS011;57790;51.356;-2.906;2023-04-24T18:05:03;4.93;;;1.20;;